sensor_id;sensor_type;location;lat;lon;timestamp;P1;durP1;ratioP1;P2;durP2;ratioP2
59938;SDS011;45801;51.810;19.444;2023-03-14T00:01:12;10.10;;;4.50;;
59938;SDS011;45801;51.810;19.444;2023-03-14T00:03:42;9.40;;;4.20;;
59938;SDS011;45801;51.810;19.444;2023-03-14T00:06:09;8.80;;;3.60;;
59938;SDS011;45801;51.810;19.444;2023-03-14T00:08:36;8.00;;;3.80;;
59938;SDS011;45801;51.810;19.444;2023-03-14T00:13:33;10.00;;;3.90;;
59938;SDS011;45801;51.810;19.444;2023-03-14T00:16:06;8.20;;;3.60;;
59938;SDS011;45801;51.810;19.444;2023-03-14T00:18:37;8.40;;;3.70;;
59938;SDS011;45801;51.810;19.444;2023-03-14T00:21:05;9.40;;;3.90;;
59938;SDS011;45801;51.810;19.444;2023-03-14T00:23:34;8.50;;;3.40;;
59938;SDS011;45801;51.810;19.444;2023-03-14T00:26:03;9.70;;;4.10;;
59938;SDS011;45801;51.810;19.444;2023-03-14T00:28:32;7.90;;;3.70;;
59938;SDS011;45801;51.810;19.444;2023-03-14T00:30:58;8.20;;;3.80;;
59938;SDS011;45801;51.810;19.444;2023-03-14T00:33:25;8.10;;;3.70;;
59938;SDS011;45801;51.810;19.444;2023-03-14T00:35:52;8.20;;;3.40;;
59938;SDS011;45801;51.810;19.444;2023-03-14T00:38:23;7.90;;;3.90;;
59938;SDS011;45801;51.810;19.444;2023-03-14T00:40:51;8.20;;;3.70;;
59938;SDS011;45801;51.810;19.444;2023-03-14T00:43:20;8.20;;;3.40;;
59938;SDS011;45801;51.810;19.444;2023-03-14T00:45:50;12.30;;;4.10;;
59938;SDS011;45801;51.810;19.444;2023-03-14T00:48:17;7.10;;;3.00;;
59938;SDS011;45801;51.810;19.444;2023-03-14T00:50:45;10.20;;;3.40;;
59938;SDS011;45801;51.810;19.444;2023-03-14T00:53:12;8.90;;;3.60;;
59938;SDS011;45801;51.810;19.444;2023-03-14T00:55:39;9.50;;;3.60;;
59938;SDS011;45801;51.810;19.444;2023-03-14T00:58:09;8.60;;;3.30;;
59938;SDS011;45801;51.810;19.444;2023-03-14T01:00:36;8.70;;;3.30;;
59938;SDS011;45801;51.810;19.444;2023-03-14T01:03:03;7.20;;;3.20;;
59938;SDS011;45801;51.810;19.444;2023-03-14T01:05:30;8.00;;;3.50;;
59938;SDS011;45801;51.810;19.444;2023-03-14T01:07:56;7.90;;;3.40;;
59938;SDS011;45801;51.810;19.444;2023-03-14T01:10:23;7.90;;;3.50;;
59938;SDS011;45801;51.810;19.444;2023-03-14T01:12:50;9.00;;;3.80;;
59938;SDS011;45801;51.810;19.444;2023-03-14T01:15:17;9.40;;;3.60;;
59938;SDS011;45801;51.810;19.444;2023-03-14T01:17:45;11.70;;;3.60;;
59938;SDS011;45801;51.810;19.444;2023-03-14T01:20:13;7.70;;;3.00;;
59938;SDS011;45801;51.810;19.444;2023-03-14T01:22:41;8.10;;;3.30;;
59938;SDS011;45801;51.810;19.444;2023-03-14T01:25:09;7.60;;;3.40;;
59938;SDS011;45801;51.810;19.444;2023-03-14T01:27:39;8.50;;;3.40;;
59938;SDS011;45801;51.810;19.444;2023-03-14T01:30:05;9.10;;;3.00;;
59938;SDS011;45801;51.810;19.444;2023-03-14T01:32:34;9.40;;;3.40;;
59938;SDS011;45801;51.810;19.444;2023-03-14T01:35:00;7.50;;;3.40;;
59938;SDS011;45801;51.810;19.444;2023-03-14T01:37:27;8.50;;;3.30;;
59938;SDS011;45801;51.810;19.444;2023-03-14T01:39:53;6.90;;;3.20;;
59938;SDS011;45801;51.810;19.444;2023-03-14T01:42:20;7.70;;;3.20;;
59938;SDS011;45801;51.810;19.444;2023-03-14T01:44:53;9.10;;;3.10;;
59938;SDS011;45801;51.810;19.444;2023-03-14T01:47:23;8.40;;;3.30;;
59938;SDS011;45801;51.810;19.444;2023-03-14T01:49:54;9.20;;;3.50;;
59938;SDS011;45801;51.810;19.444;2023-03-14T01:52:32;9.20;;;3.50;;
59938;SDS011;45801;51.810;19.444;2023-03-14T01:55:05;7.70;;;3.10;;
59938;SDS011;45801;51.810;19.444;2023-03-14T01:57:41;9.80;;;3.40;;
59938;SDS011;45801;51.810;19.444;2023-03-14T02:00:14;8.10;;;3.50;;
59938;SDS011;45801;51.810;19.444;2023-03-14T02:02:45;7.80;;;3.10;;
59938;SDS011;45801;51.810;19.444;2023-03-14T02:05:24;8.70;;;3.20;;
59938;SDS011;45801;51.810;19.444;2023-03-14T02:07:54;9.10;;;3.50;;
59938;SDS011;45801;51.810;19.444;2023-03-14T02:10:25;8.50;;;3.20;;
59938;SDS011;45801;51.810;19.444;2023-03-14T02:12:55;7.00;;;3.10;;
59938;SDS011;45801;51.810;19.444;2023-03-14T02:15:25;8.00;;;3.50;;
59938;SDS011;45801;51.810;19.444;2023-03-14T02:17:52;6.90;;;3.00;;
59938;SDS011;45801;51.810;19.444;2023-03-14T02:22:51;8.20;;;3.40;;
59938;SDS011;45801;51.810;19.444;2023-03-14T02:25:24;8.40;;;3.20;;
59938;SDS011;45801;51.810;19.444;2023-03-14T02:28:09;9.00;;;4.00;;
59938;SDS011;45801;51.810;19.444;2023-03-14T02:30:36;9.50;;;3.80;;
59938;SDS011;45801;51.810;19.444;2023-03-14T02:33:04;8.70;;;2.90;;
59938;SDS011;45801;51.810;19.444;2023-03-14T02:41:07;9.00;;;3.30;;
59938;SDS011;45801;51.810;19.444;2023-03-14T02:43:34;9.50;;;3.40;;
59938;SDS011;45801;51.810;19.444;2023-03-14T02:46:01;8.30;;;3.70;;
59938;SDS011;45801;51.810;19.444;2023-03-14T02:51:00;10.20;;;4.00;;
59938;SDS011;45801;51.810;19.444;2023-03-14T02:53:29;9.40;;;4.30;;
59938;SDS011;45801;51.810;19.444;2023-03-14T02:55:59;11.90;;;4.10;;
59938;SDS011;45801;51.810;19.444;2023-03-14T02:58:25;10.30;;;3.80;;
59938;SDS011;45801;51.810;19.444;2023-03-14T03:00:53;9.80;;;4.00;;
59938;SDS011;45801;51.810;19.444;2023-03-14T03:03:20;8.10;;;3.90;;
59938;SDS011;45801;51.810;19.444;2023-03-14T03:05:48;12.00;;;4.70;;
59938;SDS011;45801;51.810;19.444;2023-03-14T03:08:17;11.90;;;4.70;;
59938;SDS011;45801;51.810;19.444;2023-03-14T03:10:45;10.60;;;4.40;;
59938;SDS011;45801;51.810;19.444;2023-03-14T03:13:11;10.70;;;5.50;;
59938;SDS011;45801;51.810;19.444;2023-03-14T03:15:38;13.00;;;6.10;;
59938;SDS011;45801;51.810;19.444;2023-03-14T03:18:06;11.50;;;5.50;;
59938;SDS011;45801;51.810;19.444;2023-03-14T03:20:32;14.30;;;6.40;;
59938;SDS011;45801;51.810;19.444;2023-03-14T03:22:59;14.20;;;6.20;;
59938;SDS011;45801;51.810;19.444;2023-03-14T03:25:26;13.20;;;6.70;;
59938;SDS011;45801;51.810;19.444;2023-03-14T03:27:53;12.20;;;6.30;;
59938;SDS011;45801;51.810;19.444;2023-03-14T03:30:20;13.90;;;7.00;;
59938;SDS011;45801;51.810;19.444;2023-03-14T03:32:47;15.50;;;7.20;;
59938;SDS011;45801;51.810;19.444;2023-03-14T03:35:13;12.20;;;6.70;;
59938;SDS011;45801;51.810;19.444;2023-03-14T03:37:41;14.00;;;7.50;;
59938;SDS011;45801;51.810;19.444;2023-03-14T03:40:08;12.30;;;6.30;;
59938;SDS011;45801;51.810;19.444;2023-03-14T03:42:35;12.10;;;5.90;;
59938;SDS011;45801;51.810;19.444;2023-03-14T03:45:03;16.10;;;6.70;;
59938;SDS011;45801;51.810;19.444;2023-03-14T03:47:30;12.20;;;6.40;;
59938;SDS011;45801;51.810;19.444;2023-03-14T03:49:58;12.20;;;5.70;;
59938;SDS011;45801;51.810;19.444;2023-03-14T03:52:24;14.40;;;6.20;;
59938;SDS011;45801;51.810;19.444;2023-03-14T03:54:50;14.80;;;6.20;;
59938;SDS011;45801;51.810;19.444;2023-03-14T03:57:17;14.50;;;6.20;;
59938;SDS011;45801;51.810;19.444;2023-03-14T03:59:43;12.50;;;6.10;;
59938;SDS011;45801;51.810;19.444;2023-03-14T04:02:10;13.20;;;7.10;;
59938;SDS011;45801;51.810;19.444;2023-03-14T04:04:36;13.90;;;6.70;;
59938;SDS011;45801;51.810;19.444;2023-03-14T04:07:04;13.00;;;6.70;;
59938;SDS011;45801;51.810;19.444;2023-03-14T04:09:33;13.50;;;6.20;;
59938;SDS011;45801;51.810;19.444;2023-03-14T04:11:59;14.60;;;6.30;;
59938;SDS011;45801;51.810;19.444;2023-03-14T04:14:25;11.40;;;6.30;;
59938;SDS011;45801;51.810;19.444;2023-03-14T04:16:52;13.80;;;6.80;;
59938;SDS011;45801;51.810;19.444;2023-03-14T04:19:19;15.50;;;7.10;;
59938;SDS011;45801;51.810;19.444;2023-03-14T04:21:46;14.10;;;7.10;;
59938;SDS011;45801;51.810;19.444;2023-03-14T04:24:13;13.60;;;6.90;;
59938;SDS011;45801;51.810;19.444;2023-03-14T04:26:40;11.10;;;5.90;;
59938;SDS011;45801;51.810;19.444;2023-03-14T04:29:06;12.80;;;6.50;;
59938;SDS011;45801;51.810;19.444;2023-03-14T04:31:33;13.80;;;6.80;;
59938;SDS011;45801;51.810;19.444;2023-03-14T04:33:59;13.10;;;6.50;;
59938;SDS011;45801;51.810;19.444;2023-03-14T04:36:27;14.70;;;6.20;;
59938;SDS011;45801;51.810;19.444;2023-03-14T04:38:53;12.20;;;6.70;;
59938;SDS011;45801;51.810;19.444;2023-03-14T04:41:20;14.30;;;6.30;;
59938;SDS011;45801;51.810;19.444;2023-03-14T04:43:46;13.00;;;6.00;;
59938;SDS011;45801;51.810;19.444;2023-03-14T04:46:13;13.40;;;5.60;;
59938;SDS011;45801;51.810;19.444;2023-03-14T04:48:39;12.80;;;5.80;;
59938;SDS011;45801;51.810;19.444;2023-03-14T04:51:07;11.90;;;5.40;;
59938;SDS011;45801;51.810;19.444;2023-03-14T04:53:34;12.10;;;6.20;;
59938;SDS011;45801;51.810;19.444;2023-03-14T04:56:01;11.90;;;5.90;;
59938;SDS011;45801;51.810;19.444;2023-03-14T04:58:28;13.50;;;6.10;;
59938;SDS011;45801;51.810;19.444;2023-03-14T05:00:54;12.70;;;5.80;;
59938;SDS011;45801;51.810;19.444;2023-03-14T05:03:21;12.30;;;6.30;;
59938;SDS011;45801;51.810;19.444;2023-03-14T05:05:48;11.70;;;6.00;;
59938;SDS011;45801;51.810;19.444;2023-03-14T05:08:14;12.90;;;5.90;;
59938;SDS011;45801;51.810;19.444;2023-03-14T05:10:40;11.50;;;5.00;;
59938;SDS011;45801;51.810;19.444;2023-03-14T05:13:07;13.20;;;6.00;;
59938;SDS011;45801;51.810;19.444;2023-03-14T05:15:34;11.90;;;5.50;;
59938;SDS011;45801;51.810;19.444;2023-03-14T05:18:00;12.20;;;5.60;;
59938;SDS011;45801;51.810;19.444;2023-03-14T05:20:27;12.50;;;5.40;;
59938;SDS011;45801;51.810;19.444;2023-03-14T05:22:53;13.10;;;5.70;;
59938;SDS011;45801;51.810;19.444;2023-03-14T05:25:20;10.00;;;5.10;;
59938;SDS011;45801;51.810;19.444;2023-03-14T05:27:46;10.70;;;5.50;;
59938;SDS011;45801;51.810;19.444;2023-03-14T05:30:15;11.90;;;5.70;;
59938;SDS011;45801;51.810;19.444;2023-03-14T05:32:41;11.70;;;5.30;;
59938;SDS011;45801;51.810;19.444;2023-03-14T05:35:08;10.80;;;5.20;;
59938;SDS011;45801;51.810;19.444;2023-03-14T05:37:35;12.10;;;5.40;;
59938;SDS011;45801;51.810;19.444;2023-03-14T05:40:01;10.50;;;5.40;;
59938;SDS011;45801;51.810;19.444;2023-03-14T05:42:30;12.10;;;6.00;;
59938;SDS011;45801;51.810;19.444;2023-03-14T05:44:56;10.20;;;4.90;;
59938;SDS011;45801;51.810;19.444;2023-03-14T05:47:23;12.10;;;5.90;;
59938;SDS011;45801;51.810;19.444;2023-03-14T05:49:49;11.20;;;5.30;;
59938;SDS011;45801;51.810;19.444;2023-03-14T05:52:16;11.30;;;5.80;;
59938;SDS011;45801;51.810;19.444;2023-03-14T05:54:42;11.50;;;5.70;;
59938;SDS011;45801;51.810;19.444;2023-03-14T05:57:09;11.50;;;6.10;;
59938;SDS011;45801;51.810;19.444;2023-03-14T05:59:35;11.10;;;5.50;;
59938;SDS011;45801;51.810;19.444;2023-03-14T06:02:02;12.50;;;5.20;;
59938;SDS011;45801;51.810;19.444;2023-03-14T06:04:28;12.00;;;6.00;;
59938;SDS011;45801;51.810;19.444;2023-03-14T06:06:55;12.30;;;5.60;;
59938;SDS011;45801;51.810;19.444;2023-03-14T06:09:21;11.60;;;5.60;;
59938;SDS011;45801;51.810;19.444;2023-03-14T06:11:49;11.90;;;5.60;;
59938;SDS011;45801;51.810;19.444;2023-03-14T06:14:16;12.00;;;6.10;;
59938;SDS011;45801;51.810;19.444;2023-03-14T06:16:43;11.70;;;6.10;;
59938;SDS011;45801;51.810;19.444;2023-03-14T06:19:10;11.60;;;5.70;;
59938;SDS011;45801;51.810;19.444;2023-03-14T06:21:38;13.00;;;5.30;;
59938;SDS011;45801;51.810;19.444;2023-03-14T06:24:04;13.00;;;6.40;;
59938;SDS011;45801;51.810;19.444;2023-03-14T06:26:31;14.70;;;5.60;;
59938;SDS011;45801;51.810;19.444;2023-03-14T06:28:57;12.30;;;6.00;;
59938;SDS011;45801;51.810;19.444;2023-03-14T06:31:28;11.80;;;5.50;;
59938;SDS011;45801;51.810;19.444;2023-03-14T06:33:56;13.90;;;5.30;;
59938;SDS011;45801;51.810;19.444;2023-03-14T06:36:22;13.40;;;5.40;;
59938;SDS011;45801;51.810;19.444;2023-03-14T06:38:49;11.00;;;5.30;;
59938;SDS011;45801;51.810;19.444;2023-03-14T06:41:15;9.90;;;5.10;;
59938;SDS011;45801;51.810;19.444;2023-03-14T06:43:42;10.50;;;5.10;;
59938;SDS011;45801;51.810;19.444;2023-03-14T06:46:08;10.60;;;4.50;;
59938;SDS011;45801;51.810;19.444;2023-03-14T06:48:35;11.20;;;4.60;;
59938;SDS011;45801;51.810;19.444;2023-03-14T06:51:01;10.50;;;4.00;;
59938;SDS011;45801;51.810;19.444;2023-03-14T06:53:27;8.70;;;4.00;;
59938;SDS011;45801;51.810;19.444;2023-03-14T06:55:54;9.30;;;4.20;;
59938;SDS011;45801;51.810;19.444;2023-03-14T06:58:20;9.00;;;3.60;;
59938;SDS011;45801;51.810;19.444;2023-03-14T07:00:46;9.40;;;3.70;;
59938;SDS011;45801;51.810;19.444;2023-03-14T07:03:13;9.30;;;3.90;;
59938;SDS011;45801;51.810;19.444;2023-03-14T07:05:40;10.20;;;4.30;;
59938;SDS011;45801;51.810;19.444;2023-03-14T07:08:07;10.70;;;4.50;;
59938;SDS011;45801;51.810;19.444;2023-03-14T07:10:35;9.90;;;3.90;;
59938;SDS011;45801;51.810;19.444;2023-03-14T07:13:01;12.60;;;4.30;;
59938;SDS011;45801;51.810;19.444;2023-03-14T07:15:27;12.10;;;3.10;;
59938;SDS011;45801;51.810;19.444;2023-03-14T07:17:54;9.30;;;3.80;;
59938;SDS011;45801;51.810;19.444;2023-03-14T07:20:20;8.70;;;3.50;;
59938;SDS011;45801;51.810;19.444;2023-03-14T07:22:47;10.60;;;3.10;;
59938;SDS011;45801;51.810;19.444;2023-03-14T07:25:15;8.10;;;4.00;;
59938;SDS011;45801;51.810;19.444;2023-03-14T07:27:43;8.20;;;4.00;;
59938;SDS011;45801;51.810;19.444;2023-03-14T07:30:11;9.50;;;3.60;;
59938;SDS011;45801;51.810;19.444;2023-03-14T07:32:38;7.80;;;3.60;;
59938;SDS011;45801;51.810;19.444;2023-03-14T07:35:05;7.90;;;3.80;;
59938;SDS011;45801;51.810;19.444;2023-03-14T07:37:32;11.30;;;4.00;;
59938;SDS011;45801;51.810;19.444;2023-03-14T07:39:59;10.20;;;4.10;;
59938;SDS011;45801;51.810;19.444;2023-03-14T07:42:25;10.10;;;3.50;;
59938;SDS011;45801;51.810;19.444;2023-03-14T07:44:51;8.20;;;3.60;;
59938;SDS011;45801;51.810;19.444;2023-03-14T07:47:18;9.10;;;3.80;;
59938;SDS011;45801;51.810;19.444;2023-03-14T07:49:44;9.00;;;4.30;;
59938;SDS011;45801;51.810;19.444;2023-03-14T07:52:11;8.50;;;3.60;;
59938;SDS011;45801;51.810;19.444;2023-03-14T07:54:37;9.80;;;3.70;;
59938;SDS011;45801;51.810;19.444;2023-03-14T07:57:03;8.20;;;3.40;;
59938;SDS011;45801;51.810;19.444;2023-03-14T07:59:30;10.50;;;4.60;;
59938;SDS011;45801;51.810;19.444;2023-03-14T08:01:56;9.00;;;3.90;;
59938;SDS011;45801;51.810;19.444;2023-03-14T08:04:23;10.10;;;4.20;;
59938;SDS011;45801;51.810;19.444;2023-03-14T08:06:49;9.80;;;4.10;;
59938;SDS011;45801;51.810;19.444;2023-03-14T08:09:16;8.00;;;3.50;;
59938;SDS011;45801;51.810;19.444;2023-03-14T08:11:42;10.40;;;4.20;;
59938;SDS011;45801;51.810;19.444;2023-03-14T08:14:09;8.80;;;4.30;;
59938;SDS011;45801;51.810;19.444;2023-03-14T08:16:37;9.80;;;4.20;;
59938;SDS011;45801;51.810;19.444;2023-03-14T08:19:03;9.00;;;3.80;;
59938;SDS011;45801;51.810;19.444;2023-03-14T08:21:30;10.70;;;4.80;;
59938;SDS011;45801;51.810;19.444;2023-03-14T08:23:56;9.10;;;4.10;;
59938;SDS011;45801;51.810;19.444;2023-03-14T08:26:23;10.70;;;4.50;;
59938;SDS011;45801;51.810;19.444;2023-03-14T08:28:49;9.70;;;4.10;;
59938;SDS011;45801;51.810;19.444;2023-03-14T08:31:15;8.40;;;4.00;;
59938;SDS011;45801;51.810;19.444;2023-03-14T08:33:42;9.20;;;4.00;;
59938;SDS011;45801;51.810;19.444;2023-03-14T08:36:08;9.00;;;3.70;;
59938;SDS011;45801;51.810;19.444;2023-03-14T08:38:35;10.30;;;4.00;;
59938;SDS011;45801;51.810;19.444;2023-03-14T08:41:02;9.60;;;4.30;;
59938;SDS011;45801;51.810;19.444;2023-03-14T08:43:29;10.00;;;4.20;;
59938;SDS011;45801;51.810;19.444;2023-03-14T08:45:59;12.20;;;4.50;;
59938;SDS011;45801;51.810;19.444;2023-03-14T08:48:27;9.50;;;4.20;;
59938;SDS011;45801;51.810;19.444;2023-03-14T08:50:56;10.10;;;4.20;;
59938;SDS011;45801;51.810;19.444;2023-03-14T08:53:23;7.60;;;3.40;;
59938;SDS011;45801;51.810;19.444;2023-03-14T08:55:52;12.20;;;4.20;;
59938;SDS011;45801;51.810;19.444;2023-03-14T08:58:20;9.80;;;4.50;;
59938;SDS011;45801;51.810;19.444;2023-03-14T09:00:49;10.50;;;4.00;;
59938;SDS011;45801;51.810;19.444;2023-03-14T09:03:16;9.20;;;4.10;;
59938;SDS011;45801;51.810;19.444;2023-03-14T09:05:42;11.70;;;4.00;;
59938;SDS011;45801;51.810;19.444;2023-03-14T09:08:09;9.90;;;3.70;;
59938;SDS011;45801;51.810;19.444;2023-03-14T09:10:36;8.30;;;3.80;;
59938;SDS011;45801;51.810;19.444;2023-03-14T09:13:02;11.30;;;4.20;;
59938;SDS011;45801;51.810;19.444;2023-03-14T09:15:28;9.80;;;4.00;;
59938;SDS011;45801;51.810;19.444;2023-03-14T09:17:55;10.50;;;4.30;;
59938;SDS011;45801;51.810;19.444;2023-03-14T09:20:21;8.90;;;3.90;;
59938;SDS011;45801;51.810;19.444;2023-03-14T09:22:48;7.70;;;3.40;;
59938;SDS011;45801;51.810;19.444;2023-03-14T09:25:14;11.90;;;4.40;;
59938;SDS011;45801;51.810;19.444;2023-03-14T09:27:41;10.60;;;3.70;;
59938;SDS011;45801;51.810;19.444;2023-03-14T09:30:07;9.80;;;3.80;;
59938;SDS011;45801;51.810;19.444;2023-03-14T09:32:34;10.00;;;3.60;;
59938;SDS011;45801;51.810;19.444;2023-03-14T09:35:01;9.10;;;3.70;;
59938;SDS011;45801;51.810;19.444;2023-03-14T09:37:27;9.00;;;3.70;;
59938;SDS011;45801;51.810;19.444;2023-03-14T09:39:54;8.90;;;3.80;;
59938;SDS011;45801;51.810;19.444;2023-03-14T09:42:21;10.40;;;4.90;;
59938;SDS011;45801;51.810;19.444;2023-03-14T09:44:59;11.60;;;4.30;;
59938;SDS011;45801;51.810;19.444;2023-03-14T09:47:28;10.50;;;4.60;;
59938;SDS011;45801;51.810;19.444;2023-03-14T09:49:54;9.70;;;4.10;;
59938;SDS011;45801;51.810;19.444;2023-03-14T09:52:22;9.80;;;3.80;;
59938;SDS011;45801;51.810;19.444;2023-03-14T09:57:29;9.00;;;4.10;;
59938;SDS011;45801;51.810;19.444;2023-03-14T10:00:00;11.70;;;4.40;;
59938;SDS011;45801;51.810;19.444;2023-03-14T10:02:41;11.40;;;5.40;;
59938;SDS011;45801;51.810;19.444;2023-03-14T10:05:16;9.20;;;4.70;;
59938;SDS011;45801;51.810;19.444;2023-03-14T10:07:44;9.10;;;3.50;;
59938;SDS011;45801;51.810;19.444;2023-03-14T10:10:12;9.50;;;3.40;;
59938;SDS011;45801;51.810;19.444;2023-03-14T10:12:43;8.50;;;3.80;;
59938;SDS011;45801;51.810;19.444;2023-03-14T10:15:13;8.40;;;3.60;;
59938;SDS011;45801;51.810;19.444;2023-03-14T10:17:49;9.70;;;4.00;;
59938;SDS011;45801;51.810;19.444;2023-03-14T10:20:30;9.20;;;3.80;;
59938;SDS011;45801;51.810;19.444;2023-03-14T10:23:02;10.80;;;4.20;;
59938;SDS011;45801;51.810;19.444;2023-03-14T10:25:33;10.90;;;4.80;;
59938;SDS011;45801;51.810;19.444;2023-03-14T10:28:02;8.90;;;4.00;;
59938;SDS011;45801;51.810;19.444;2023-03-14T10:30:33;9.60;;;3.90;;
59938;SDS011;45801;51.810;19.444;2023-03-14T10:33:23;9.30;;;4.10;;
59938;SDS011;45801;51.810;19.444;2023-03-14T10:38:46;9.30;;;3.50;;
59938;SDS011;45801;51.810;19.444;2023-03-14T10:41:24;8.70;;;3.60;;
59938;SDS011;45801;51.810;19.444;2023-03-14T10:43:58;9.60;;;3.90;;
59938;SDS011;45801;51.810;19.444;2023-03-14T10:46:29;9.30;;;3.30;;
59938;SDS011;45801;51.810;19.444;2023-03-14T10:48:58;9.30;;;3.60;;
59938;SDS011;45801;51.810;19.444;2023-03-14T10:51:31;10.00;;;4.00;;
59938;SDS011;45801;51.810;19.444;2023-03-14T10:54:02;8.90;;;3.90;;
59938;SDS011;45801;51.810;19.444;2023-03-14T10:56:37;8.90;;;3.80;;
59938;SDS011;45801;51.810;19.444;2023-03-14T10:59:07;7.80;;;3.40;;
59938;SDS011;45801;51.810;19.444;2023-03-14T11:10:14;11.30;;;4.30;;
59938;SDS011;45801;51.810;19.444;2023-03-14T11:15:41;8.70;;;4.10;;
59938;SDS011;45801;51.810;19.444;2023-03-14T11:20:56;10.10;;;4.20;;
59938;SDS011;45801;51.810;19.444;2023-03-14T11:23:32;10.90;;;4.90;;
59938;SDS011;45801;51.810;19.444;2023-03-14T11:32:30;10.70;;;4.80;;
59938;SDS011;45801;51.810;19.444;2023-03-14T11:34:59;13.40;;;5.30;;
59938;SDS011;45801;51.810;19.444;2023-03-14T11:37:34;11.20;;;4.40;;
59938;SDS011;45801;51.810;19.444;2023-03-14T11:40:17;12.50;;;4.20;;
59938;SDS011;45801;51.810;19.444;2023-03-14T11:42:58;12.30;;;4.80;;
59938;SDS011;45801;51.810;19.444;2023-03-14T11:45:37;10.70;;;5.10;;
59938;SDS011;45801;51.810;19.444;2023-03-14T11:48:14;12.40;;;5.30;;
59938;SDS011;45801;51.810;19.444;2023-03-14T11:50:46;10.00;;;5.00;;
59938;SDS011;45801;51.810;19.444;2023-03-14T11:53:17;11.60;;;5.30;;
59938;SDS011;45801;51.810;19.444;2023-03-14T11:55:57;11.90;;;6.40;;
59938;SDS011;45801;51.810;19.444;2023-03-14T11:58:29;12.60;;;5.90;;
59938;SDS011;45801;51.810;19.444;2023-03-14T12:01:02;11.50;;;6.90;;
59938;SDS011;45801;51.810;19.444;2023-03-14T12:06:37;10.00;;;5.80;;
59938;SDS011;45801;51.810;19.444;2023-03-14T12:09:12;9.00;;;5.00;;
59938;SDS011;45801;51.810;19.444;2023-03-14T12:11:52;7.80;;;4.30;;
59938;SDS011;45801;51.810;19.444;2023-03-14T12:14:25;9.70;;;4.60;;
59938;SDS011;45801;51.810;19.444;2023-03-14T12:20:19;11.40;;;5.30;;
59938;SDS011;45801;51.810;19.444;2023-03-14T12:23:01;10.80;;;4.80;;
59938;SDS011;45801;51.810;19.444;2023-03-14T12:25:30;10.20;;;5.30;;
59938;SDS011;45801;51.810;19.444;2023-03-14T12:30:27;11.70;;;5.30;;
59938;SDS011;45801;51.810;19.444;2023-03-14T12:38:22;12.10;;;5.70;;
59938;SDS011;45801;51.810;19.444;2023-03-14T12:43:43;10.30;;;5.70;;
59938;SDS011;45801;51.810;19.444;2023-03-14T12:46:21;10.10;;;5.50;;
59938;SDS011;45801;51.810;19.444;2023-03-14T12:51:45;9.50;;;5.30;;
59938;SDS011;45801;51.810;19.444;2023-03-14T12:54:19;12.90;;;6.20;;
59938;SDS011;45801;51.810;19.444;2023-03-14T12:59:59;9.20;;;5.00;;
59938;SDS011;45801;51.810;19.444;2023-03-14T13:02:28;9.40;;;5.20;;
59938;SDS011;45801;51.810;19.444;2023-03-14T13:05:10;9.40;;;5.10;;
59938;SDS011;45801;51.810;19.444;2023-03-14T13:10:17;10.10;;;6.10;;
59938;SDS011;45801;51.810;19.444;2023-03-14T13:12:51;11.10;;;5.50;;
59938;SDS011;45801;51.810;19.444;2023-03-14T13:15:31;11.80;;;5.50;;
59938;SDS011;45801;51.810;19.444;2023-03-14T13:18:02;8.90;;;4.90;;
59938;SDS011;45801;51.810;19.444;2023-03-14T13:20:36;9.30;;;5.30;;
59938;SDS011;45801;51.810;19.444;2023-03-14T13:23:24;10.90;;;6.20;;
59938;SDS011;45801;51.810;19.444;2023-03-14T13:25:53;9.70;;;5.00;;
59938;SDS011;45801;51.810;19.444;2023-03-14T13:28:20;9.40;;;4.50;;
59938;SDS011;45801;51.810;19.444;2023-03-14T13:30:58;9.00;;;5.20;;
59938;SDS011;45801;51.810;19.444;2023-03-14T13:33:26;12.20;;;5.80;;
59938;SDS011;45801;51.810;19.444;2023-03-14T13:35:57;10.80;;;6.00;;
59938;SDS011;45801;51.810;19.444;2023-03-14T13:40:57;9.80;;;5.80;;
59938;SDS011;45801;51.810;19.444;2023-03-14T13:43:32;11.50;;;5.20;;
59938;SDS011;45801;51.810;19.444;2023-03-14T13:46:02;10.00;;;4.90;;
59938;SDS011;45801;51.810;19.444;2023-03-14T13:48:32;9.00;;;4.90;;
59938;SDS011;45801;51.810;19.444;2023-03-14T13:53:44;11.30;;;5.40;;
59938;SDS011;45801;51.810;19.444;2023-03-14T13:56:17;11.40;;;5.20;;
59938;SDS011;45801;51.810;19.444;2023-03-14T13:58:45;9.10;;;5.20;;
59938;SDS011;45801;51.810;19.444;2023-03-14T14:01:18;9.10;;;5.30;;
59938;SDS011;45801;51.810;19.444;2023-03-14T14:03:55;9.70;;;4.60;;
59938;SDS011;45801;51.810;19.444;2023-03-14T14:08:55;10.70;;;5.20;;
59938;SDS011;45801;51.810;19.444;2023-03-14T14:14:05;9.40;;;4.50;;
59938;SDS011;45801;51.810;19.444;2023-03-14T14:16:35;8.70;;;5.10;;
59938;SDS011;45801;51.810;19.444;2023-03-14T14:19:01;10.50;;;4.90;;
59938;SDS011;45801;51.810;19.444;2023-03-14T14:21:28;10.40;;;4.70;;
59938;SDS011;45801;51.810;19.444;2023-03-14T14:23:57;9.40;;;5.10;;
59938;SDS011;45801;51.810;19.444;2023-03-14T14:26:26;9.50;;;4.80;;
59938;SDS011;45801;51.810;19.444;2023-03-14T14:29:03;8.70;;;4.50;;
59938;SDS011;45801;51.810;19.444;2023-03-14T14:31:31;10.90;;;4.90;;
59938;SDS011;45801;51.810;19.444;2023-03-14T14:33:58;11.30;;;5.30;;
59938;SDS011;45801;51.810;19.444;2023-03-14T14:36:31;8.80;;;4.30;;
59938;SDS011;45801;51.810;19.444;2023-03-14T14:39:25;8.90;;;4.50;;
59938;SDS011;45801;51.810;19.444;2023-03-14T14:41:52;9.90;;;5.00;;
59938;SDS011;45801;51.810;19.444;2023-03-14T14:44:35;10.70;;;6.20;;
59938;SDS011;45801;51.810;19.444;2023-03-14T14:47:03;11.20;;;4.80;;
59938;SDS011;45801;51.810;19.444;2023-03-14T14:49:31;11.10;;;5.30;;
59938;SDS011;45801;51.810;19.444;2023-03-14T14:52:15;10.00;;;5.20;;
59938;SDS011;45801;51.810;19.444;2023-03-14T14:57:18;9.70;;;4.70;;
59938;SDS011;45801;51.810;19.444;2023-03-14T14:59:47;9.30;;;5.00;;
59938;SDS011;45801;51.810;19.444;2023-03-14T15:02:24;10.40;;;4.80;;
59938;SDS011;45801;51.810;19.444;2023-03-14T15:05:20;10.60;;;4.50;;
59938;SDS011;45801;51.810;19.444;2023-03-14T15:07:49;10.60;;;5.20;;
59938;SDS011;45801;51.810;19.444;2023-03-14T15:10:17;10.40;;;5.60;;
59938;SDS011;45801;51.810;19.444;2023-03-14T15:12:48;10.70;;;5.50;;
59938;SDS011;45801;51.810;19.444;2023-03-14T15:15:15;11.10;;;5.60;;
59938;SDS011;45801;51.810;19.444;2023-03-14T15:17:43;10.20;;;5.30;;
59938;SDS011;45801;51.810;19.444;2023-03-14T15:20:10;9.20;;;4.60;;
59938;SDS011;45801;51.810;19.444;2023-03-14T15:22:41;9.90;;;5.00;;
59938;SDS011;45801;51.810;19.444;2023-03-14T15:25:08;10.60;;;5.90;;
59938;SDS011;45801;51.810;19.444;2023-03-14T15:27:36;8.50;;;4.80;;
59938;SDS011;45801;51.810;19.444;2023-03-14T15:32:38;11.90;;;5.30;;
59938;SDS011;45801;51.810;19.444;2023-03-14T15:35:05;9.90;;;5.50;;
59938;SDS011;45801;51.810;19.444;2023-03-14T15:37:33;10.30;;;5.30;;
59938;SDS011;45801;51.810;19.444;2023-03-14T15:40:01;11.40;;;5.80;;
59938;SDS011;45801;51.810;19.444;2023-03-14T15:42:37;10.30;;;4.80;;
59938;SDS011;45801;51.810;19.444;2023-03-14T15:45:04;10.50;;;5.50;;
59938;SDS011;45801;51.810;19.444;2023-03-14T15:47:31;10.70;;;5.20;;
59938;SDS011;45801;51.810;19.444;2023-03-14T15:49:58;12.30;;;5.60;;
59938;SDS011;45801;51.810;19.444;2023-03-14T15:52:25;10.10;;;4.40;;
59938;SDS011;45801;51.810;19.444;2023-03-14T15:54:51;11.00;;;5.70;;
59938;SDS011;45801;51.810;19.444;2023-03-14T15:57:18;10.50;;;5.90;;
59938;SDS011;45801;51.810;19.444;2023-03-14T15:59:44;10.00;;;5.60;;